Guatemala, Guatemala

1:55 AM CST on August 22, 2014 (GMT -0600)
La Aurora International | Change Station
CLOSE
Current Station
Airport
Location: Guatemala,
Elevation: 4885 ft
Nearby Weather Stations

Elev 4885 ft 14.58 °N, 90.53 °W | Updated -284 second ago

Mostly Cloudy
Mostly Cloudy
63 °F
Feels Like 63 °F
N
12
Wind Variable Wind from North

Today
High -- | Low -- °F
--% Chance of Precip.
Yesterday
High -- | Low -- °F
Precip. -- in
5:49 AM 6:20 PM
Waning Crescent, 9% visible
Pressure 30.30 in
Visibility 6.2 miles
Clouds Mostly Cloudy 1400 ft
Dew Point 61 °F
Humidity 94%
Rainfall 0.00 in
Snow Depth Not available.
UV 0 out of 12
Pollen Not available.
Air Quality Not available.
Flu Activity Not available.
METAR MGGT 220800Z 36010KT 9999 BKN014 17/16 Q1026 A3030

More Conditions Fewer Conditions

Pressure 30.30 in
Visibility 6.2 miles
Clouds Mostly Cloudy 1400 ft
Dew Point 61 °F
Humidity 94%
Rainfall 0.00 in
Snow Depth Not available.
UV 0 out of 12
Pollen Not available.
Air Quality Not available.
Flu Activity Not available.
METAR MGGT 220800Z 36010KT 9999 BKN014 17/16 Q1026 A3030

More Conditions Fewer Conditions

10-Day Weather Forecast

Almanac

Astronomy

Aug. 22, 2014 Rise Set
Actual Time 5:49 AM CST 6:20 PM CST
Civil Twilight 5:27 AM CST 6:42 PM CST
Nautical Twilight 5:01 AM CST 7:08 PM CST
Astronomical Twilight 4:35 AM CST 7:33 PM CST
Moon 3:23 AM CST 4:20 PM CST
Length of Visible Light 13h 15m
Length of Day
12h 31m
Tomorrow will be 0m 45s shorter.
Waning Crescent, 9% of the Moon is Illuminated
Today
Waning Crescent
Aug 25
New
Sep 2
First Quarter
Sep 8
Full
Sep 15
Last Quarter

Yesterday's Extremes

Country Highs Country Lows

Community

WunderPhotos

Upload Photos

1,746,131 photos uploaded!

Nearby

Snow Depth

Not available.

Earthquake Activity

City Distance Mag. Time & Date
No recent earthquake activity has been reported nearby.
Minimum magnitude displayed is 2.5.

Coastal Water Temperatures

Place Temperature
No Stations Reporting

Nearby Weather Stations